Neptune Avra — 9HKH6 — position and weather

sailwx.info

Track history (hours):
 
Tides and Currents Weather Stations Pressure Air Temp Water Temp Dewpoint Dewpoint Depression Visibility Wind Speed Wind Dir Waves Ship Positions

Neptune Avra

Last reported at 2018-Apr-23 16:59 UTC. Time now 2018-Apr-23 19:28 UTC.
Position N 43°10' E 004°47'.

Length 155 m; draft 6.2 m.

Type: Cargo ship. MMSI: 248598000.

Date/timePositionNaut miles runAvg speedWind from/ knotsBaromVisibWave heightAir tempDewpointWater temp
2018-Apr-23 16:59N 43°10' E 004°47'1017.3
2018-Apr-23 16:26N 43°17' E 004°56'512.3
2018-Apr-23 16:00N 43°23' E 004°57'5 0.1
2018-Apr-22 06:50N 43°24' E 004°51'2 5.9
2018-Apr-22 06:25N 43°24' E 004°54'511.2
2018-Apr-22 06:00N 43°21' E 004°59'44217.2
2018-Apr-21 04:17N 37°24' W 000°44'23416.1
2018-Apr-20 13:44N 35°60' W 005°16'314.6
2018-Apr-20 13:30N 35°59' W 005°20'11 0.7
2018-Apr-19 20:58N 35°57' W 005°34'3 6.6
2018-Apr-19 20:27N 35°58' W 005°30'614.4
2018-Apr-19 20:00N 36°00' W 005°22'22910.8
2018-Apr-18 22:49N 37°20' W 000°54'611.1
2018-Apr-18 22:17N 37°24' W 000°49'811.0
2018-Apr-18 21:35N 37°29' W 000°42'110.5
2018-Apr-18 21:30N 37°29' W 000°41'510.5
2018-Apr-18 21:00N 37°33' W 000°36'5 9.8
2018-Apr-18 20:30N 37°36' W 000°31'5 9.6
2018-Apr-18 20:00N 37°40' W 000°28'5 9.5
2018-Apr-18 19:30N 37°45' W 000°25'13 9.5
2018-Apr-18 18:11N 37°55' W 000°17'2 9.4
2018-Apr-18 18:00N 37°57' W 000°16'510.1
2018-Apr-18 17:31N 38°01' W 000°12'612.1
2018-Apr-18 17:00N 38°06' W 000°08'815.0
2018-Apr-18 16:30N 38°12' W 000°03'815.1
2018-Apr-18 16:00N 38°19' E 000°02'815.9
2018-Apr-18 15:30N 38°25' E 000°08'2713.3
2018-Apr-18 13:31N 38°47' E 000°27'419.7
2018-Apr-18 13:19N 38°51' E 000°29'919.7
2018-Apr-18 12:50N 38°58' E 000°36'31417.0
2018-Apr-17 18:21N 43°10' E 004°47'616.9
2018-Apr-17 18:00N 43°14' E 004°52'814.1
2018-Apr-17 17:28N 43°20' E 004°58'3 5.1
2018-Apr-17 16:56N 43°23' E 004°56'0 0.2
2018-Apr-17 16:31N 43°23' E 004°56'0 0.0
2018-Apr-17 16:00N 43°23' E 004°56'0 0.0
2018-Apr-17 15:30N 43°23' E 004°56'0 0.0
2018-Apr-17 15:00N 43°23' E 004°56'0 0.0
2018-Apr-17 14:30N 43°23' E 004°56'0 0.0
2018-Apr-17 13:59N 43°23' E 004°56'0 0.0
2018-Apr-17 13:26N 43°23' E 004°56'0 0.2
2018-Apr-17 13:00N 43°23' E 004°56'1 2.3
2018-Apr-17 12:30N 43°24' E 004°55'2 0.2
2018-Apr-17 02:34N 43°24' E 004°53'111.1
2018-Apr-17 02:29N 43°24' E 004°54'511.2
2018-Apr-17 02:00N 43°20' E 004°59'1013.4
2018-Apr-17 01:14N 43°12' E 004°50'15715.0
2018-Apr-16 14:47N 41°21' E 002°19'415.4
2018-Apr-16 14:30N 41°19' E 002°14'4 5.6
2018-Apr-16 13:43N 41°20' E 002°09'0 0.3
2018-Apr-16 13:26N 41°20' E 002°09'0 0.0
2018-Apr-16 12:50N 41°20' E 002°09'0 0.0
2018-Apr-16 12:26N 41°20' E 002°09'0 0.0
2018-Apr-16 11:50N 41°20' E 002°09'0 0.0
2018-Apr-16 11:26N 41°20' E 002°09'0 0.0
2018-Apr-16 10:59N 41°20' E 002°09'0 0.0
2018-Apr-16 10:26N 41°20' E 002°09'0 0.0
2018-Apr-16 09:56N 41°20' E 002°09'0 0.0
2018-Apr-16 09:20N 41°20' E 002°09'0 0.0
2018-Apr-16 08:59N 41°20' E 002°09'0 0.0
2018-Apr-16 08:26N 41°20' E 002°09'0 0.0
2018-Apr-16 07:56N 41°20' E 002°09'0 0.0
2018-Apr-16 07:26N 41°20' E 002°09'0 0.0
2018-Apr-16 06:56N 41°20' E 002°09'0 0.0
2018-Apr-16 06:29N 41°20' E 002°09'0 0.0
2018-Apr-16 05:58N 41°20' E 002°09'0 0.0
2018-Apr-16 05:28N 41°20' E 002°09'0 0.0
2018-Apr-16 04:55N 41°20' E 002°09'0 0.0
2018-Apr-16 04:28N 41°20' E 002°09'0 0.0
2018-Apr-16 03:58N 41°20' E 002°09'0 0.3
2018-Apr-16 03:30N 41°20' E 002°09'1 2.1
2018-Apr-16 03:00N 41°19' E 002°10'4 6.9
2018-Apr-16 02:25N 41°15' E 002°11'3 8.0
2018-Apr-16 02:00N 41°12' E 002°09'24913.1
2018-Apr-15 07:01N 37°35' W 000°30'113.3
2018-Apr-15 06:56N 37°34' W 000°31'1513.3
2018-Apr-15 05:49N 37°24' W 000°44'23413.1
2018-Apr-14 12:00N 35°60' W 005°16'917.7
2018-Apr-14 11:30N 35°57' W 005°26'  
Track history (hours):
 
Tides and Currents Weather Stations Pressure Air Temp Water Temp Dewpoint Dewpoint Depression Visibility Wind Speed Wind Dir Waves Ship Positions

Neptune Avra

Last reported at 2018-Apr-23 16:59 UTC. Time now 2018-Apr-23 19:28 UTC.
Position N 43°10' E 004°47'.

Length 155 m; draft 6.2 m.

Type: Cargo ship. MMSI: 248598000.

Date/timePositionNaut miles runAvg speedWind from/ knotsBaromVisibWave heightAir tempDewpointWater temp
2018-Apr-23 16:59N 43°10' E 004°47'1017.3
2018-Apr-23 16:26N 43°17' E 004°56'512.3
2018-Apr-23 16:00N 43°23' E 004°57'5 0.1
2018-Apr-22 06:50N 43°24' E 004°51'2 5.9
2018-Apr-22 06:25N 43°24' E 004°54'511.2
2018-Apr-22 06:00N 43°21' E 004°59'44217.2
2018-Apr-21 04:17N 37°24' W 000°44'23416.1
2018-Apr-20 13:44N 35°60' W 005°16'314.6
2018-Apr-20 13:30N 35°59' W 005°20'11 0.7
2018-Apr-19 20:58N 35°57' W 005°34'3 6.6
2018-Apr-19 20:27N 35°58' W 005°30'614.4
2018-Apr-19 20:00N 36°00' W 005°22'22910.8
2018-Apr-18 22:49N 37°20' W 000°54'611.1
2018-Apr-18 22:17N 37°24' W 000°49'811.0
2018-Apr-18 21:35N 37°29' W 000°42'110.5
2018-Apr-18 21:30N 37°29' W 000°41'510.5
2018-Apr-18 21:00N 37°33' W 000°36'5 9.8
2018-Apr-18 20:30N 37°36' W 000°31'5 9.6
2018-Apr-18 20:00N 37°40' W 000°28'5 9.5
2018-Apr-18 19:30N 37°45' W 000°25'13 9.5
2018-Apr-18 18:11N 37°55' W 000°17'2 9.4
2018-Apr-18 18:00N 37°57' W 000°16'510.1
2018-Apr-18 17:31N 38°01' W 000°12'612.1
2018-Apr-18 17:00N 38°06' W 000°08'815.0
2018-Apr-18 16:30N 38°12' W 000°03'815.1
2018-Apr-18 16:00N 38°19' E 000°02'815.9
2018-Apr-18 15:30N 38°25' E 000°08'2713.3
2018-Apr-18 13:31N 38°47' E 000°27'419.7
2018-Apr-18 13:19N 38°51' E 000°29'919.7
2018-Apr-18 12:50N 38°58' E 000°36'31417.0
2018-Apr-17 18:21N 43°10' E 004°47'616.9
2018-Apr-17 18:00N 43°14' E 004°52'814.1
2018-Apr-17 17:28N 43°20' E 004°58'3 5.1
2018-Apr-17 16:56N 43°23' E 004°56'0 0.2
2018-Apr-17 16:31N 43°23' E 004°56'0 0.0
2018-Apr-17 16:00N 43°23' E 004°56'0 0.0
2018-Apr-17 15:30N 43°23' E 004°56'0 0.0
2018-Apr-17 15:00N 43°23' E 004°56'0 0.0
2018-Apr-17 14:30N 43°23' E 004°56'0 0.0
2018-Apr-17 13:59N 43°23' E 004°56'0 0.0
2018-Apr-17 13:26N 43°23' E 004°56'0 0.2
2018-Apr-17 13:00N 43°23' E 004°56'1 2.3
2018-Apr-17 12:30N 43°24' E 004°55'2 0.2
2018-Apr-17 02:34N 43°24' E 004°53'111.1
2018-Apr-17 02:29N 43°24' E 004°54'511.2
2018-Apr-17 02:00N 43°20' E 004°59'1013.4
2018-Apr-17 01:14N 43°12' E 004°50'15715.0
2018-Apr-16 14:47N 41°21' E 002°19'415.4
2018-Apr-16 14:30N 41°19' E 002°14'4 5.6
2018-Apr-16 13:43N 41°20' E 002°09'0 0.3
2018-Apr-16 13:26N 41°20' E 002°09'0 0.0
2018-Apr-16 12:50N 41°20' E 002°09'0 0.0
2018-Apr-16 12:26N 41°20' E 002°09'0 0.0
2018-Apr-16 11:50N 41°20' E 002°09'0 0.0
2018-Apr-16 11:26N 41°20' E 002°09'0 0.0
2018-Apr-16 10:59N 41°20' E 002°09'0 0.0
2018-Apr-16 10:26N 41°20' E 002°09'0 0.0
2018-Apr-16 09:56N 41°20' E 002°09'0 0.0
2018-Apr-16 09:20N 41°20' E 002°09'0 0.0
2018-Apr-16 08:59N 41°20' E 002°09'0 0.0
2018-Apr-16 08:26N 41°20' E 002°09'0 0.0
2018-Apr-16 07:56N 41°20' E 002°09'0 0.0
2018-Apr-16 07:26N 41°20' E 002°09'0 0.0
2018-Apr-16 06:56N 41°20' E 002°09'0 0.0
2018-Apr-16 06:29N 41°20' E 002°09'0 0.0
2018-Apr-16 05:58N 41°20' E 002°09'0 0.0
2018-Apr-16 05:28N 41°20' E 002°09'0 0.0
2018-Apr-16 04:55N 41°20' E 002°09'0 0.0
2018-Apr-16 04:28N 41°20' E 002°09'0 0.0
2018-Apr-16 03:58N 41°20' E 002°09'0 0.3
2018-Apr-16 03:30N 41°20' E 002°09'1 2.1
2018-Apr-16 03:00N 41°19' E 002°10'4 6.9
2018-Apr-16 02:25N 41°15' E 002°11'3 8.0
2018-Apr-16 02:00N 41°12' E 002°09'24913.1
2018-Apr-15 07:01N 37°35' W 000°30'113.3
2018-Apr-15 06:56N 37°34' W 000°31'1513.3
2018-Apr-15 05:49N 37°24' W 000°44'23413.1
2018-Apr-14 12:00N 35°60' W 005°16'917.7
2018-Apr-14 11:30N 35°57' W 005°26'  

Dump ship's entire track history